Terminal Aerodrome Forecast
Issued by NWS

Home | Current Version | Previous Version | Text Only | Print | Product List | Glossary On
Versions: 1 2 3 4 5 6 7 8 9 10 11 12 13 14 15 16 17 18 19
000
FTAK31 PAJN 051700
TAFAYA
TAF
PAYA 051720Z 0518/0618 VRB03KT P6SM VCSH SCT020 BKN050
     FM060300 VRB05KT P6SM VCFG BKN040
     FM061200 VRB05KT 6SM BR SCT010 BKN030
      AMD LTD TO CLD VIS AND WIND 0601/0610=

USA.gov is the U.S. government's official web portal to all federal, state and local government web resources and services.